createdAt,value
2022-10-28T00:01:08.225Z,5.07
2022-10-28T00:03:39.200Z,5.20
2022-10-28T00:06:09.093Z,5.50
2022-10-28T00:08:36.190Z,4.70
2022-10-28T00:11:11.786Z,4.90
2022-10-28T00:13:39.434Z,5.20
2022-10-28T00:16:09.362Z,5.40
2022-10-28T00:18:37.332Z,4.87
2022-10-28T00:21:10.696Z,4.87
2022-10-28T00:23:37.680Z,5.17
2022-10-28T00:26:13.210Z,5.10
2022-10-28T00:28:51.315Z,5.67
2022-10-28T00:31:20.798Z,5.40
2022-10-28T00:33:48.112Z,5.90
2022-10-28T00:36:30.027Z,5.23
2022-10-28T00:38:57.682Z,5.03
2022-10-28T00:41:26.193Z,5.40
2022-10-28T00:43:56.517Z,5.90
2022-10-28T00:46:35.513Z,5.10
2022-10-28T00:49:26.224Z,6.20
2022-10-28T00:51:57.755Z,5.63
2022-10-28T00:54:25.112Z,5.60
2022-10-28T00:56:55.890Z,5.87
2022-10-28T00:59:33.869Z,5.23
2022-10-28T01:02:01.627Z,5.57
2022-10-28T01:04:28.757Z,5.30
2022-10-28T01:06:57.395Z,5.60
2022-10-28T01:12:24.139Z,5.80
2022-10-28T01:15:18.377Z,5.40
2022-10-28T01:18:09.879Z,5.57
2022-10-28T01:20:59.814Z,5.47
2022-10-28T01:23:32.553Z,5.00
2022-10-28T01:26:18.376Z,5.77
2022-10-28T01:28:45.273Z,5.93
2022-10-28T01:31:30.921Z,5.50
2022-10-28T01:34:10.047Z,5.63
2022-10-28T01:37:11.703Z,5.63
2022-10-28T01:40:04.005Z,5.93
2022-10-28T01:42:45.638Z,5.23
2022-10-28T01:45:15.423Z,5.47
2022-10-28T01:47:57.677Z,5.03
2022-10-28T01:50:50.845Z,5.50
2022-10-28T01:53:22.295Z,4.93
2022-10-28T01:55:53.014Z,5.40
2022-10-28T01:58:25.600Z,5.13
2022-10-28T02:00:53.415Z,5.53
2022-10-28T02:03:20.563Z,5.93
2022-10-28T02:05:49.765Z,5.53
2022-10-28T02:08:49.030Z,5.37
2022-10-28T02:12:00.074Z,5.17
2022-10-28T02:15:01.141Z,5.13
2022-10-28T02:18:13.466Z,4.57
2022-10-28T02:20:58.914Z,5.07
2022-10-28T02:23:42.617Z,5.27
2022-10-28T02:26:27.249Z,4.83
2022-10-28T02:29:02.190Z,5.03
2022-10-28T02:31:42.301Z,5.00
2022-10-28T02:34:14.277Z,4.93
2022-10-28T02:36:45.497Z,4.63
2022-10-28T02:39:12.867Z,4.53
2022-10-28T02:42:06.772Z,4.90
2022-10-28T02:44:37.994Z,4.60
2022-10-28T02:47:12.368Z,4.77
2022-10-28T02:49:44.272Z,4.30
2022-10-28T02:52:12.151Z,4.67
2022-10-28T02:54:54.152Z,4.40
2022-10-28T02:57:30.251Z,5.00
2022-10-28T03:00:05.412Z,4.30
2022-10-28T03:02:32.774Z,4.83
2022-10-28T03:04:59.757Z,4.10
2022-10-28T03:07:26.658Z,4.33
2022-10-28T03:09:53.532Z,4.80
2022-10-28T03:12:20.542Z,4.10
2022-10-28T03:14:47.755Z,4.10
2022-10-28T03:17:14.748Z,4.50
2022-10-28T03:19:41.641Z,4.30
2022-10-28T03:22:08.638Z,4.27
2022-10-28T03:24:35.443Z,4.10
2022-10-28T03:27:02.323Z,4.00
2022-10-28T03:29:29.161Z,4.20
2022-10-28T03:31:56.166Z,4.40
2022-10-28T03:34:23.089Z,3.47
2022-10-28T03:36:50.158Z,3.80
2022-10-28T03:39:17.135Z,3.73
2022-10-28T03:41:43.995Z,3.90
2022-10-28T03:44:10.839Z,3.50
2022-10-28T03:46:38.082Z,4.23
2022-10-28T03:49:04.922Z,3.97
2022-10-28T03:51:31.865Z,3.87
2022-10-28T03:53:58.862Z,3.47
2022-10-28T03:56:25.760Z,4.50
2022-10-28T04:01:19.464Z,4.40
2022-10-28T04:03:46.504Z,3.97
2022-10-28T04:06:14.528Z,3.97
2022-10-28T04:08:41.436Z,3.30
2022-10-28T04:11:08.573Z,3.73
2022-10-28T04:13:35.508Z,3.60
2022-10-28T04:16:02.589Z,4.73
2022-10-28T04:18:29.840Z,4.37
2022-10-28T04:20:56.822Z,3.63
2022-10-28T04:23:23.767Z,3.87
2022-10-28T04:25:54.508Z,3.93
2022-10-28T04:28:24.187Z,4.20
2022-10-28T04:30:51.378Z,4.00
2022-10-28T04:33:18.546Z,3.83
2022-10-28T04:35:45.676Z,3.73
2022-10-28T04:38:14.291Z,3.80
2022-10-28T04:40:41.514Z,3.87
2022-10-28T04:43:10.155Z,3.90
2022-10-28T04:45:38.350Z,7.03
2022-10-28T04:48:05.835Z,7.80
2022-10-28T04:50:33.168Z,4.17
2022-10-28T04:53:00.544Z,3.60
2022-10-28T04:55:27.508Z,3.00
2022-10-28T04:57:59.142Z,4.70
2022-10-28T05:00:27.868Z,3.33
2022-10-28T05:02:55.233Z,3.70
2022-10-28T05:05:22.568Z,3.30
2022-10-28T05:07:49.424Z,2.97
2022-10-28T05:10:18.207Z,3.40
2022-10-28T05:12:45.969Z,3.40
2022-10-28T05:15:14.211Z,2.67
2022-10-28T05:17:45.088Z,3.47
2022-10-28T05:20:13.739Z,3.00
2022-10-28T05:22:50.325Z,3.27
2022-10-28T05:25:18.400Z,3.57
2022-10-28T05:27:45.801Z,2.97
2022-10-28T05:30:13.999Z,3.17
2022-10-28T05:32:41.287Z,3.00
2022-10-28T05:35:08.970Z,3.00
2022-10-28T05:37:35.997Z,2.90
2022-10-28T05:40:04.343Z,3.23
2022-10-28T05:42:31.427Z,3.63
2022-10-28T05:44:58.443Z,3.20
2022-10-28T05:47:25.466Z,3.73
2022-10-28T05:49:52.385Z,3.33
2022-10-28T05:52:19.277Z,3.60
2022-10-28T05:54:46.223Z,4.07
2022-10-28T05:57:13.491Z,3.60
2022-10-28T05:59:40.357Z,3.40
2022-10-28T06:02:14.516Z,3.40
2022-10-28T06:04:42.216Z,3.53
2022-10-28T06:07:09.534Z,3.70
2022-10-28T06:09:36.586Z,3.43
2022-10-28T06:12:02.239Z,3.77
2022-10-28T06:14:29.432Z,3.60
2022-10-28T06:16:56.433Z,3.70
2022-10-28T06:19:23.360Z,3.60
2022-10-28T06:21:50.388Z,4.50
2022-10-28T06:24:17.338Z,3.80
2022-10-28T06:26:44.266Z,4.17
2022-10-28T06:29:11.696Z,4.10
2022-10-28T06:31:41.967Z,4.60
2022-10-28T06:34:09.362Z,4.10
2022-10-28T06:36:37.889Z,4.20
2022-10-28T06:39:05.508Z,3.90
2022-10-28T06:41:32.662Z,4.27
2022-10-28T06:43:59.640Z,4.30
2022-10-28T06:46:27.126Z,3.90
2022-10-28T06:48:56.382Z,3.53
2022-10-28T06:51:23.733Z,3.27
2022-10-28T06:53:51.613Z,3.87
2022-10-28T06:56:18.864Z,3.70
2022-10-28T06:58:53.228Z,3.20
2022-10-28T07:01:21.123Z,2.97
2022-10-28T07:03:48.856Z,3.33
2022-10-28T07:06:16.795Z,3.50
2022-10-28T07:08:43.903Z,3.37
2022-10-28T07:11:10.949Z,3.37
2022-10-28T07:13:37.915Z,3.97
2022-10-28T07:16:05.300Z,4.10
2022-10-28T07:18:32.524Z,3.87
2022-10-28T07:21:00.981Z,4.47
2022-10-28T07:23:28.865Z,3.30
2022-10-28T07:25:57.296Z,3.13
2022-10-28T07:28:26.300Z,3.20
2022-10-28T07:30:53.764Z,3.67
2022-10-28T07:33:21.106Z,3.50
2022-10-28T07:35:48.206Z,3.70
2022-10-28T07:38:15.316Z,3.33
2022-10-28T07:40:42.593Z,3.27
2022-10-28T07:43:09.565Z,3.57
2022-10-28T07:45:37.118Z,3.83
2022-10-28T07:48:05.701Z,3.87
2022-10-28T07:50:32.839Z,3.17
2022-10-28T07:53:00.371Z,3.80
2022-10-28T07:55:27.781Z,4.03
2022-10-28T07:57:55.096Z,5.00
2022-10-28T08:00:22.470Z,4.40
2022-10-28T08:02:49.374Z,4.67
2022-10-28T08:05:16.532Z,4.70
2022-10-28T08:07:43.457Z,4.33
2022-10-28T08:10:10.380Z,4.93
2022-10-28T08:12:37.345Z,4.90
2022-10-28T08:15:04.996Z,3.60
2022-10-28T08:17:32.129Z,4.93
2022-10-28T08:19:59.169Z,4.10
2022-10-28T08:22:26.249Z,5.00
2022-10-28T08:24:53.198Z,4.13
2022-10-28T08:27:20.101Z,4.40
2022-10-28T08:29:47.045Z,4.63
2022-10-28T08:32:13.923Z,4.30
2022-10-28T08:34:43.540Z,4.47
2022-10-28T08:37:11.035Z,4.57
2022-10-28T08:39:37.968Z,4.17
2022-10-28T08:42:26.126Z,4.27
2022-10-28T08:45:04.701Z,6.40
2022-10-28T08:47:49.865Z,5.37
2022-10-28T08:50:19.343Z,4.90
2022-10-28T08:53:03.740Z,4.80
2022-10-28T08:55:50.390Z,3.93
2022-10-28T08:58:31.034Z,4.10
2022-10-28T09:01:00.053Z,4.33
2022-10-28T09:03:41.410Z,4.43
2022-10-28T09:06:10.263Z,4.00
2022-10-28T09:08:48.401Z,6.00
2022-10-28T09:11:18.360Z,5.27
2022-10-28T09:13:45.304Z,4.30
2022-10-28T09:16:45.821Z,4.17
2022-10-28T09:19:24.175Z,4.03
2022-10-28T09:22:01.073Z,3.60
2022-10-28T09:24:42.063Z,4.00
2022-10-28T09:27:23.650Z,3.87
2022-10-28T09:30:16.543Z,4.10
2022-10-28T09:33:15.584Z,3.73
2022-10-28T09:35:46.226Z,4.20
2022-10-28T09:38:28.166Z,3.93
2022-10-28T09:41:16.212Z,3.40
2022-10-28T09:43:51.566Z,3.67
2022-10-28T09:46:19.987Z,3.33
2022-10-28T09:48:53.127Z,3.63
2022-10-28T09:51:33.419Z,3.47
2022-10-28T09:54:01.373Z,3.37
2022-10-28T09:56:30.096Z,3.07
2022-10-28T09:59:03.076Z,3.13
2022-10-28T10:01:38.131Z,3.33
2022-10-28T10:04:20.957Z,3.10
2022-10-28T10:06:55.969Z,2.77
2022-10-28T10:09:29.987Z,3.20
2022-10-28T10:12:02.941Z,2.77
2022-10-28T10:14:36.799Z,3.40
2022-10-28T10:17:09.938Z,3.00
2022-10-28T10:20:03.131Z,2.97
2022-10-28T10:22:41.889Z,2.70
2022-10-28T10:25:18.051Z,3.10
2022-10-28T10:28:04.682Z,2.80
2022-10-28T10:31:02.560Z,2.70
2022-10-28T10:33:34.060Z,2.93
2022-10-28T10:36:03.032Z,2.80
2022-10-28T10:38:31.563Z,2.63
2022-10-28T10:40:58.585Z,2.47
2022-10-28T10:43:36.395Z,2.63
2022-10-28T10:46:21.786Z,2.50
2022-10-28T10:49:11.572Z,2.50
2022-10-28T10:51:41.336Z,2.40
2022-10-28T10:54:15.441Z,2.58
2022-10-28T10:56:43.108Z,2.88
2022-10-28T10:59:37.891Z,2.40
2022-10-28T11:02:22.498Z,3.03
2022-10-28T11:04:55.341Z,2.50
2022-10-28T11:07:22.409Z,3.40
2022-10-28T11:09:51.043Z,2.60
2022-10-28T11:12:28.541Z,2.50
2022-10-28T11:14:58.615Z,2.83
2022-10-28T11:20:30.033Z,2.70
2022-10-28T11:23:15.214Z,2.53
2022-10-28T11:25:46.178Z,2.55
2022-10-28T11:28:26.933Z,2.78
2022-10-28T11:33:59.120Z,2.28
2022-10-28T11:36:32.390Z,2.88
2022-10-28T11:39:30.186Z,2.58
2022-10-28T11:42:18.758Z,3.15
2022-10-28T11:44:49.918Z,2.95
2022-10-28T11:47:16.864Z,2.50
2022-10-28T11:50:01.726Z,2.20
2022-10-28T11:53:05.371Z,2.42
2022-10-28T11:55:41.544Z,2.67
2022-10-28T11:58:38.045Z,2.33
2022-10-28T12:01:20.159Z,2.50
2022-10-28T12:04:08.547Z,2.50
2022-10-28T12:07:12.689Z,2.17
2022-10-28T12:10:01.058Z,2.17
2022-10-28T12:12:47.239Z,2.38
2022-10-28T12:15:23.290Z,2.10
2022-10-28T12:18:06.243Z,2.35
2022-10-28T12:20:45.396Z,2.20
2022-10-28T12:23:22.269Z,3.05
2022-10-28T12:25:55.187Z,2.88
2022-10-28T12:28:27.882Z,2.20
2022-10-28T12:30:57.074Z,2.50
2022-10-28T12:33:40.914Z,2.20
2022-10-28T12:36:07.897Z,2.45
2022-10-28T12:39:04.044Z,2.60
2022-10-28T12:42:02.310Z,2.53
2022-10-28T12:44:32.329Z,2.15
2022-10-28T12:47:24.086Z,2.10
2022-10-28T12:50:10.569Z,2.67
2022-10-28T12:53:03.837Z,2.38
2022-10-28T12:55:49.267Z,2.83
2022-10-28T12:58:36.532Z,3.30
2022-10-28T13:01:18.914Z,2.80
2022-10-28T13:03:46.017Z,2.85
2022-10-28T13:06:19.212Z,2.33
2022-10-28T13:09:16.882Z,3.03
2022-10-28T13:12:25.444Z,2.35
2022-10-28T13:15:10.931Z,2.50
2022-10-28T13:17:59.814Z,3.08
2022-10-28T13:21:22.128Z,2.35
2022-10-28T13:24:06.701Z,2.92
2022-10-28T13:26:36.012Z,2.78
2022-10-28T13:29:07.403Z,2.70
2022-10-28T13:31:44.880Z,2.65
2022-10-28T13:34:14.771Z,2.78
2022-10-28T13:37:00.279Z,2.75
2022-10-28T13:39:34.245Z,2.70
2022-10-28T13:42:13.703Z,2.80
2022-10-28T13:44:49.961Z,3.17
2022-10-28T13:47:17.060Z,2.70
2022-10-28T13:50:05.935Z,3.08
2022-10-28T13:52:43.931Z,2.92
2022-10-28T13:55:27.410Z,2.65
2022-10-28T13:58:04.256Z,2.72
2022-10-28T14:00:31.307Z,2.72
2022-10-28T14:03:03.226Z,2.80
2022-10-28T14:05:36.571Z,3.30
2022-10-28T14:08:17.128Z,3.78
2022-10-28T14:11:02.803Z,2.60
2022-10-28T14:13:34.226Z,2.88
2022-10-28T14:16:33.013Z,2.95
2022-10-28T14:19:26.368Z,2.90
2022-10-28T14:22:06.273Z,3.50
2022-10-28T14:24:43.913Z,3.05
2022-10-28T14:27:15.346Z,3.00
2022-10-28T14:30:13.128Z,3.58
2022-10-28T14:32:43.952Z,3.28
2022-10-28T14:35:12.965Z,3.30
2022-10-28T14:37:55.477Z,4.47
2022-10-28T14:40:36.104Z,3.60
2022-10-28T14:43:25.107Z,3.17
2022-10-28T14:46:08.793Z,2.72
2022-10-28T14:48:55.640Z,2.97
2022-10-28T14:51:26.650Z,3.17
2022-10-28T14:54:07.100Z,3.20
2022-10-28T14:56:35.143Z,4.38
2022-10-28T14:59:20.971Z,2.83
2022-10-28T15:01:54.155Z,3.40
2022-10-28T15:04:21.748Z,2.75
2022-10-28T15:06:51.208Z,2.97
2022-10-28T15:09:30.511Z,3.67
2022-10-28T15:12:08.451Z,3.03
2022-10-28T15:14:46.684Z,3.00
2022-10-28T15:17:23.142Z,2.75
2022-10-28T15:19:55.304Z,2.72
2022-10-28T15:22:32.201Z,3.38
2022-10-28T15:25:05.116Z,3.00
2022-10-28T15:27:40.913Z,3.85
2022-10-28T15:30:24.610Z,2.80
2022-10-28T15:32:52.745Z,3.30
2022-10-28T15:35:35.595Z,2.88
2022-10-28T15:38:12.782Z,3.08
2022-10-28T15:40:39.778Z,3.13
2022-10-28T15:43:16.926Z,3.00
2022-10-28T15:45:45.169Z,2.97
2022-10-28T15:48:15.108Z,3.35
2022-10-28T15:50:42.290Z,3.17
2022-10-28T15:53:12.789Z,2.80
2022-10-28T15:58:35.858Z,2.85
2022-10-28T16:01:03.355Z,3.28
2022-10-28T16:03:44.016Z,2.90
2022-10-28T16:06:40.333Z,3.20
2022-10-28T16:09:22.733Z,3.20
2022-10-28T16:11:53.347Z,3.53
2022-10-28T16:14:23.501Z,2.80
2022-10-28T16:16:50.452Z,2.83
2022-10-28T16:19:30.553Z,2.90
2022-10-28T16:21:57.426Z,3.42
2022-10-28T16:24:24.319Z,3.60
2022-10-28T16:26:51.312Z,3.15
2022-10-28T16:29:18.364Z,2.92
2022-10-28T16:31:50.359Z,3.33
2022-10-28T16:34:17.839Z,2.92
2022-10-28T16:36:44.998Z,3.08
2022-10-28T16:39:13.046Z,3.22
2022-10-28T16:41:40.982Z,3.08
2022-10-28T16:44:27.615Z,3.30
2022-10-28T16:46:54.548Z,2.70
2022-10-28T16:49:21.404Z,2.80
2022-10-28T16:51:48.446Z,3.80
2022-10-28T16:54:15.372Z,3.80
2022-10-28T16:56:42.271Z,4.45
2022-10-28T16:59:09.273Z,3.90
2022-10-28T17:01:36.322Z,2.90
2022-10-28T17:04:03.657Z,3.97
2022-10-28T17:06:30.590Z,3.35
2022-10-28T17:09:02.932Z,3.50
2022-10-28T17:13:58.624Z,3.40
2022-10-28T17:16:25.624Z,3.42
2022-10-28T17:18:52.568Z,2.90
2022-10-28T17:21:19.531Z,3.55
2022-10-28T17:23:46.623Z,3.40
2022-10-28T17:26:13.587Z,3.80
2022-10-28T17:28:40.423Z,3.73
2022-10-28T17:31:08.651Z,4.80
2022-10-28T17:33:35.816Z,3.90
2022-10-28T17:36:05.291Z,4.77
2022-10-28T17:38:32.624Z,4.30
2022-10-28T17:40:59.644Z,3.70
2022-10-28T17:43:26.862Z,4.20
2022-10-28T17:46:04.203Z,3.83
2022-10-28T17:48:31.254Z,3.90
2022-10-28T17:50:58.541Z,4.20
2022-10-28T17:53:25.440Z,3.67
2022-10-28T17:55:59.845Z,4.30
2022-10-28T17:58:27.401Z,4.00
2022-10-28T18:01:03.984Z,3.80
2022-10-28T18:03:35.533Z,4.20
2022-10-28T18:06:07.406Z,3.87
2022-10-28T18:08:37.455Z,4.00
2022-10-28T18:11:06.374Z,3.87
2022-10-28T18:13:35.483Z,3.53
2022-10-28T18:16:11.308Z,4.10
2022-10-28T18:18:42.133Z,4.20
2022-10-28T18:21:11.256Z,5.87
2022-10-28T18:23:38.519Z,4.70
2022-10-28T18:26:12.541Z,4.80
2022-10-28T18:28:40.747Z,4.33
2022-10-28T18:31:14.269Z,4.23
2022-10-28T18:33:42.854Z,4.27
2022-10-28T18:36:15.276Z,4.43
2022-10-28T18:38:42.654Z,4.33
2022-10-28T18:41:14.458Z,5.50
2022-10-28T18:43:41.717Z,4.70
2022-10-28T18:46:09.250Z,4.37
2022-10-28T18:48:36.630Z,3.97
2022-10-28T18:51:09.585Z,4.07
2022-10-28T18:53:41.988Z,4.37
2022-10-28T18:56:12.817Z,3.93
2022-10-28T18:58:40.578Z,4.00
2022-10-28T19:01:15.880Z,4.03
2022-10-28T19:03:44.299Z,4.57
2022-10-28T19:06:13.874Z,4.33
2022-10-28T19:08:54.963Z,4.17
2022-10-28T19:11:23.305Z,3.93
2022-10-28T19:13:50.368Z,4.33
2022-10-28T19:16:17.825Z,4.03
2022-10-28T19:18:44.759Z,3.97
2022-10-28T19:21:14.537Z,4.60
2022-10-28T19:23:42.814Z,4.50
2022-10-28T19:26:11.387Z,4.83
2022-10-28T19:28:43.922Z,4.53
2022-10-28T19:31:14.017Z,5.00
2022-10-28T19:33:43.176Z,4.23
2022-10-28T19:36:24.964Z,4.67
2022-10-28T19:38:56.132Z,4.50
2022-10-28T19:41:28.197Z,5.47
2022-10-28T19:44:02.922Z,5.60
2022-10-28T19:46:35.177Z,5.10
2022-10-28T19:49:05.828Z,5.00
2022-10-28T19:51:39.074Z,4.87
2022-10-28T19:54:17.495Z,5.00
2022-10-28T19:56:45.280Z,5.17
2022-10-28T19:59:12.172Z,5.23
2022-10-28T20:01:40.199Z,5.63
2022-10-28T20:04:08.253Z,4.93
2022-10-28T20:06:39.161Z,4.70
2022-10-28T20:09:06.916Z,5.03
2022-10-28T20:11:37.981Z,5.23
2022-10-28T20:14:11.922Z,4.17
2022-10-28T20:16:42.695Z,4.40
2022-10-28T20:19:10.438Z,4.13
2022-10-28T20:21:38.330Z,4.47
2022-10-28T20:24:07.118Z,4.90
2022-10-28T20:26:36.106Z,5.03
2022-10-28T20:29:03.316Z,4.93
2022-10-28T20:31:31.900Z,4.47
2022-10-28T20:34:01.593Z,5.10
2022-10-28T20:36:30.818Z,4.83
2022-10-28T20:39:13.299Z,5.10
2022-10-28T20:41:45.895Z,4.77
2022-10-28T20:44:13.045Z,4.73
2022-10-28T20:46:40.760Z,4.73
2022-10-28T20:49:13.276Z,4.87
2022-10-28T20:51:40.700Z,4.50
2022-10-28T20:54:07.880Z,4.70
2022-10-28T20:56:36.836Z,5.53
2022-10-28T20:59:04.556Z,5.03
2022-10-28T21:01:37.406Z,4.70
2022-10-28T21:04:06.939Z,4.37
2022-10-28T21:06:34.230Z,4.90
2022-10-28T21:09:01.066Z,4.83
2022-10-28T21:11:28.885Z,4.80
2022-10-28T21:13:58.281Z,4.60
2022-10-28T21:16:26.474Z,4.67
2022-10-28T21:18:53.577Z,4.53
2022-10-28T21:21:22.089Z,4.93
2022-10-28T21:23:49.294Z,4.87
2022-10-28T21:26:17.077Z,4.80
2022-10-28T21:28:45.309Z,4.53
2022-10-28T21:31:15.155Z,5.00
2022-10-28T21:33:42.832Z,4.10
2022-10-28T21:36:13.663Z,4.20
2022-10-28T21:38:40.752Z,4.77
2022-10-28T21:41:10.962Z,5.07
2022-10-28T21:43:40.453Z,4.77
2022-10-28T21:46:08.304Z,4.60
2022-10-28T21:48:36.679Z,4.63
2022-10-28T21:51:10.032Z,4.30
2022-10-28T21:53:42.470Z,4.07
2022-10-28T21:56:19.076Z,4.93
2022-10-28T21:58:48.833Z,5.13
2022-10-28T22:01:18.849Z,4.57
2022-10-28T22:03:45.902Z,4.93
2022-10-28T22:06:13.347Z,5.20
2022-10-28T22:08:40.299Z,5.27
2022-10-28T22:11:13.565Z,5.57
2022-10-28T22:13:40.621Z,6.30
2022-10-28T22:16:11.965Z,5.07
2022-10-28T22:18:38.924Z,5.00
2022-10-28T22:21:11.837Z,5.17
2022-10-28T22:23:39.400Z,4.47
2022-10-28T22:26:08.800Z,4.87
2022-10-28T22:28:35.920Z,4.67
2022-10-28T22:31:06.520Z,4.47
2022-10-28T22:33:33.634Z,4.53
2022-10-28T22:36:02.705Z,4.90
2022-10-28T22:38:30.129Z,5.40
2022-10-28T22:41:12.247Z,4.60
2022-10-28T22:43:40.166Z,4.50
2022-10-28T22:46:07.762Z,4.40
2022-10-28T22:48:34.942Z,4.63
2022-10-28T22:51:02.164Z,4.60
2022-10-28T22:53:29.133Z,4.80
2022-10-28T22:55:57.091Z,4.87
2022-10-28T22:58:26.466Z,5.00
2022-10-28T23:00:53.576Z,4.97
2022-10-28T23:03:20.523Z,4.63
2022-10-28T23:05:47.545Z,4.20
2022-10-28T23:08:15.986Z,5.13
2022-10-28T23:10:43.353Z,4.97
2022-10-28T23:13:12.298Z,4.80
2022-10-28T23:15:39.279Z,5.07
2022-10-28T23:18:06.283Z,4.80
2022-10-28T23:20:35.566Z,4.30
2022-10-28T23:23:02.645Z,4.90
2022-10-28T23:25:29.604Z,5.00
2022-10-28T23:27:56.863Z,4.67
2022-10-28T23:30:24.232Z,4.70
2022-10-28T23:32:51.145Z,4.67
2022-10-28T23:35:18.102Z,4.27
2022-10-28T23:37:44.931Z,4.33
2022-10-28T23:40:12.166Z,4.67
2022-10-28T23:42:39.055Z,4.37
2022-10-28T23:45:06.870Z,4.57
2022-10-28T23:47:33.728Z,4.80
2022-10-28T23:50:00.650Z,4.53
2022-10-28T23:52:27.585Z,4.73
2022-10-28T23:54:54.537Z,4.20
2022-10-28T23:57:21.426Z,4.50
2022-10-28T23:59:48.399Z,4.57
